Portada
METAR-TAF:

METAR-TAF

Aeropuertos :

Aeropuerto Internacional Enrique Malek

David, Panamá

latitud: 08-24N, longitud: 082-25W, altitud: 29 m

Observación

El informe se hizo hace 9 horas y 30 minutos, a las 01:00 UTC
Viento 2 kt con dirección variable
Temperatura 26°C
Humedad 84%
Presión 1007 hPa
Visibilidad 10 km o más
Escasas nubes a una altura de 1800 ft

METAR: MPDA 250100Z VRB02KT 9999 FEW018 26/23 Q1007

Hora: 05:30 (10:30 UTC)

Pronóstico

El informe se hizo hace 11 horas y 30 minutos, a las 23:00 UTC
Pronóstico válido del 25 a las 00 UTC al 25 a las 12 UTC
Viento 4 kt del norte-noreste
Visibilidad 10 km o más
Escasas nubes a una altura de 1800 ft
Temporalmente
del 25 a las 00 UTC al 25 a las 03 UTC
Viento 4 kt del oeste

TAF: MPDA 242300Z 2500/2512 02004KT 9999 FEW018 TEMPO 2500/2503 28004KT

Observaciones y pronósticos meteorológicos de más de 4000 aeropuertos (mensajes METAR y TAF).

Los puntos amarillos y rojos representan las estaciones disponibles.

Ponga el ratón en el punto deseado para ver el nombre de la estación.

Haga clic para ver las observaciones y los pronósticos meteorológicos.

Para cambiar el mapa : haga clic en los botones verdes con una cruz de color negro para hacer un zoom, en el botón verde con un guión para alejar o en las flechas verdes para mapas adyacentes.


METAR-TAF: